Flight Track Log - Related Links

Times and Time Zones

All times are in EDT time to prevent confusion due to time zone crossing. See the UAL3598 flight status page for this flight to view local times or setup timezone preferences in your user account.

Time Position Orientation Groundspeed Altitude Reporting Facility
EDT Latitude Longitude Course Direction KTS MPH feet Rate Location/Type
Tue 10:07:48 PM 40.6500 -74.1667 270° West 144 166 2,300  Level New York TRACON
Tue 10:08:42 PM 40.6500 -74.2167 270° West 204 235 3,600 1,789 Climbing New York TRACON
Tue 10:09:42 PM 40.7000 -74.2333 346° North 196 226 5,700 2,048 Climbing New York TRACON
Tue 10:10:48 PM 40.7500 -74.2500 346° North 177 204 7,900 1,650 Climbing New York TRACON
Tue 10:13:02 PM 40.8503 -74.3100 336° Northwest 177 204 11,200 1,275 Climbing New York Center
Tue 10:14:01 PM 40.9014 -74.3372 338° Northwest 188 216 12,000 403 Climbing New York Center
Tue 10:15:01 PM 40.9653 -74.3681 340° North 217 250 12,000  Level New York Center
Tue 10:16:01 PM 41.0308 -74.4019 339° North 239 275 12,000  Level New York Center
Tue 10:17:01 PM 41.0883 -74.4297 340° North 248 285 12,000  Level New York Center
Tue 10:18:01 PM 41.1600 -74.4694 337° Northwest 248 285 12,000  Level New York Center
Tue 10:19:01 PM 41.1994 -74.5322 310° West 237 273 12,000  Level New York Center
Tue 10:20:01 PM 41.2450 -74.6067 309° West 237 273 12,000  Level New York Center
Tue 10:21:01 PM 41.2847 -74.6694 310° West 237 273 12,000  Level New York Center
Tue 10:22:02 PM 41.3300 -74.7467 308° West 242 278 12,000  Level New York Center
Tue 10:23:01 PM 41.3736 -74.8156 310° West 242 278 12,000  Level New York Center
Tue 10:24:01 PM 41.4147 -74.8844 309° West 237 273 12,000  Level New York Center
Tue 10:25:01 PM 41.4542 -74.9506 309° West 242 278 12,000  Level New York Center
Tue 10:26:01 PM 41.4956 -75.0169 310° West 237 273 12,000  Level New York Center
Tue 10:27:01 PM 41.5406 -75.0944 308° West 237 273 12,000  Level New York Center
Tue 10:28:01 PM 41.5819 -75.1611 310° West 237 273 12,000 -50 Level New York Center
Tue 10:29:01 PM 41.6192 -75.2244 308° West 237 273 11,900 -400 Descending New York Center
Tue 10:30:01 PM 41.6603 -75.2939 308° West 237 273 11,200 -850 Descending New York Center
Tue 10:31:01 PM 41.7072 -75.3692 310° West 237 273 10,200 -850 Descending New York Center
Tue 10:32:01 PM 41.7589 -75.4311 318° Northwest 244 281 9,500 -750 Descending New York Center
Tue 10:33:01 PM 41.8153 -75.4853 324° Northwest 244 281 8,700 -800 Descending New York Center
Tue 10:34:01 PM 41.8767 -75.5119 342° North 249 287 7,900 -800 Descending New York Center
Tue 10:35:01 PM 41.9417 -75.5500 336° Northwest 255 293 7,100 -850 Descending New York Center
Tue 10:36:01 PM 42.0172 -75.5889 339° North 260 299 6,200 -500 Descending New York Center
Tue 10:37:01 PM 42.0767 -75.6128 343° North 260 299 6,100 -50 Descending New York Center
Tue 10:38:01 PM 42.1328 -75.6617 327° Northwest 254 292 6,100 -200 Level New York Center
Tue 10:39:01 PM 42.1869 -75.7133 325° Northwest 242 278 5,700 -550 Descending New York Center
Tue 10:40:01 PM 42.2347 -75.7644 322° Northwest 236 272 5,000 -600 Descending New York Center
Tue 10:41:01 PM 42.2711 -75.8403 303° West 218 251 4,500 -750 Descending New York Center
Tue 10:42:01 PM 42.2789 -75.8997 280° West 185 213 3,500 -800 Descending New York Center
Tue 10:43:01 PM 42.2708 -75.9411 255° West 152 175 2,900 -400 Descending New York Center
Tue 10:44:01 PM 42.2569 -75.9736 240° Southwest 121 139 2,700 -200 Descending New York Center
Tue 10:46:00 PM 42.2084 -75.9796 225° Southwest  Level Estimated
Tue 10:53:00 PM 42.2084 -75.9796 North  Level Estimated

Login

Don't have an account? Register now (free) for customized features, flight alerts, and more!